Meteorological Aerodrome Report (METAR)

METAR

Data at: 0031 UTC 20 Apr 2021

METAR for:NVSC (Sola/Vanua Lava Arpt, TO, NV)
Text:NVSC 200000Z 00000KT 9999 BKN020 31/26 Q1013
Temperature: 31.0°C ( 88°F)
Dewpoint: 26.0°C ( 79°F) [RH = 75%]
Pressure (altimeter):29.91 inches Hg (1013.0 mb)
Winds:calm
Visibility:6 or more sm (10+ km)
Ceiling:2000 feet AGL
Clouds: broken clouds at 2000 feet AGL

METAR

Data at: 0031 UTC 20 Apr 2021

METAR for:NVSG (Longana Arpt, PA, NV)
Text:No data found

METAR

Data at: 0030 UTC 20 Apr 2021

METAR for:NVSS (Santo/Pekoa Intl, SA, NV)
Text:NVSS 200000Z 11006KT 9999 SCT020 30/25 Q1013
Temperature: 30.0°C ( 86°F)
Dewpoint: 25.0°C ( 77°F) [RH = 75%]
Pressure (altimeter):29.91 inches Hg (1013.0 mb)
Winds:from the ESE (110 degrees) at 7 MPH (6 knots; 3.1 m/s)
Visibility:6 or more sm (10+ km)
Ceiling:at least 12,000 feet AGL
Clouds: scattered clouds at 2000 feet AGL

METAR

Data at: 0030 UTC 20 Apr 2021

METAR for:NVSL (Malekula Isl/Lamap, MA, NV)
Text:No data found

METAR

Data at: 0030 UTC 20 Apr 2021

METAR for:NVSP (Norsup Arpt, MA, NV)
Text:No data found

METAR

Data at: 0030 UTC 20 Apr 2021

METAR for:NVVV (Efate/Bauerfield Int, SE, NV)
Text:NVVV 200000Z 23006KT 9999 BKN020 30/27 Q1013
Temperature: 30.0°C ( 86°F)
Dewpoint: 27.0°C ( 81°F) [RH = 84%]
Pressure (altimeter):29.91 inches Hg (1013.0 mb)
Winds:from the SW (230 degrees) at 7 MPH (6 knots; 3.1 m/s)
Visibility:6 or more sm (10+ km)
Ceiling:2000 feet AGL
Clouds: broken clouds at 2000 feet AGL

METAR

Data at: 0030 UTC 20 Apr 2021

METAR for:NVVW (Tanna Arpt, TA, NV)
Text:NVVW 200000Z 36005KT 9999 FEW025 31/26 Q1013
Temperature: 31.0°C ( 88°F)
Dewpoint: 26.0°C ( 79°F) [RH = 75%]
Pressure (altimeter):29.91 inches Hg (1013.0 mb)
Winds:from the N (360 degrees) at 6 MPH (5 knots; 2.6 m/s)
Visibility:6 or more sm (10+ km)
Ceiling:at least 12,000 feet AGL
Clouds: few clouds at 2500 feet AGL

METAR

Data at: 0031 UTC 20 Apr 2021

METAR for:NVVA (Aneityum/Mystery Isl, TA, NV)
Text:NVVA 200000Z VRB02KT 9999 FEW018 SCT020 FEW025CB 30/25 Q1014
Temperature: 30.0°C ( 86°F)
Dewpoint: 25.0°C ( 77°F) [RH = 75%]
Pressure (altimeter):29.94 inches Hg (1014.0 mb)
Winds:variable direction winds at 2 MPH (2 knots; 1.0 m/s)
Visibility:6 or more sm (10+ km)
Ceiling:at least 12,000 feet AGL
Clouds: few clouds at 1800 feet AGL, scattered clouds at 2000 feet AGL, few clouds at 2500 feet AGL

METAR

Data at: 0030 UTC 20 Apr 2021

NVVV 200000Z 23006KT 9999 BKN020 30/27 Q1013
NVSC 200000Z 00000KT 9999 BKN020 31/26 Q1013
No Data available for NVSG
NVSS 200000Z 11006KT 9999 SCT020 30/25 Q1013
No Data available for NVSL
No Data available for NVSP
NVVW 200000Z 36005KT 9999 FEW025 31/26 Q1013
NVVA 200000Z VRB02KT 9999 FEW018 SCT020 FEW025CB 30/25 Q1014